sensor_id;sensor_type;location;lat;lon;timestamp;P1;durP1;ratioP1;P2;durP2;ratioP2
45802;SDS011;31504;51.716;9.184;2022-10-31T00:00:58;14.90;;;13.30;;
45802;SDS011;31504;51.716;9.184;2022-10-31T00:03:59;13.68;;;12.27;;
45802;SDS011;31504;51.716;9.184;2022-10-31T00:07:00;13.88;;;12.27;;
45802;SDS011;31504;51.716;9.184;2022-10-31T00:10:00;14.07;;;12.30;;
45802;SDS011;31504;51.716;9.184;2022-10-31T00:13:01;12.85;;;11.50;;
45802;SDS011;31504;51.716;9.184;2022-10-31T00:16:01;14.40;;;12.20;;
45802;SDS011;31504;51.716;9.184;2022-10-31T00:19:03;11.50;;;10.30;;
45802;SDS011;31504;51.716;9.184;2022-10-31T00:22:05;13.20;;;11.15;;
45802;SDS011;31504;51.716;9.184;2022-10-31T00:25:06;12.48;;;11.10;;
45802;SDS011;31504;51.716;9.184;2022-10-31T00:28:07;12.60;;;9.98;;
45802;SDS011;31504;51.716;9.184;2022-10-31T00:31:11;12.30;;;10.82;;
45802;SDS011;31504;51.716;9.184;2022-10-31T00:34:12;12.18;;;10.68;;
45802;SDS011;31504;51.716;9.184;2022-10-31T00:37:13;11.45;;;10.25;;
45802;SDS011;31504;51.716;9.184;2022-10-31T00:40:13;13.00;;;10.52;;
45802;SDS011;31504;51.716;9.184;2022-10-31T00:43:14;11.80;;;10.50;;
45802;SDS011;31504;51.716;9.184;2022-10-31T00:46:14;11.30;;;10.18;;
45802;SDS011;31504;51.716;9.184;2022-10-31T00:49:15;12.00;;;10.32;;
45802;SDS011;31504;51.716;9.184;2022-10-31T00:52:15;12.35;;;10.38;;
45802;SDS011;31504;51.716;9.184;2022-10-31T00:55:16;11.63;;;9.07;;
45802;SDS011;31504;51.716;9.184;2022-10-31T00:58:17;11.18;;;9.95;;
45802;SDS011;31504;51.716;9.184;2022-10-31T01:01:17;10.23;;;9.18;;
45802;SDS011;31504;51.716;9.184;2022-10-31T01:04:18;10.63;;;9.35;;
45802;SDS011;31504;51.716;9.184;2022-10-31T01:07:18;9.35;;;8.38;;
45802;SDS011;31504;51.716;9.184;2022-10-31T01:10:19;10.45;;;9.07;;
45802;SDS011;31504;51.716;9.184;2022-10-31T01:13:19;10.60;;;9.38;;
45802;SDS011;31504;51.716;9.184;2022-10-31T01:16:21;10.93;;;8.85;;
45802;SDS011;31504;51.716;9.184;2022-10-31T01:19:23;10.10;;;8.18;;
45802;SDS011;31504;51.716;9.184;2022-10-31T01:22:23;10.05;;;9.05;;
45802;SDS011;31504;51.716;9.184;2022-10-31T01:25:24;8.73;;;7.82;;
45802;SDS011;31504;51.716;9.184;2022-10-31T01:28:24;10.25;;;7.72;;
45802;SDS011;31504;51.716;9.184;2022-10-31T01:31:26;9.68;;;8.30;;
45802;SDS011;31504;51.716;9.184;2022-10-31T01:34:29;9.27;;;7.85;;
45802;SDS011;31504;51.716;9.184;2022-10-31T01:37:30;9.27;;;8.38;;
45802;SDS011;31504;51.716;9.184;2022-10-31T01:40:31;10.07;;;7.85;;
45802;SDS011;31504;51.716;9.184;2022-10-31T01:43:41;9.07;;;8.02;;
45802;SDS011;31504;51.716;9.184;2022-10-31T01:47:05;8.75;;;7.85;;
45802;SDS011;31504;51.716;9.184;2022-10-31T01:50:17;9.93;;;8.60;;
45802;SDS011;31504;51.716;9.184;2022-10-31T01:53:24;8.77;;;7.82;;
45802;SDS011;31504;51.716;9.184;2022-10-31T01:56:25;8.73;;;7.82;;
45802;SDS011;31504;51.716;9.184;2022-10-31T01:59:27;7.93;;;7.13;;
45802;SDS011;31504;51.716;9.184;2022-10-31T02:02:30;7.53;;;6.72;;
45802;SDS011;31504;51.716;9.184;2022-10-31T02:05:31;9.05;;;7.45;;
45802;SDS011;31504;51.716;9.184;2022-10-31T02:08:33;7.88;;;7.07;;
45802;SDS011;31504;51.716;9.184;2022-10-31T02:11:36;8.45;;;7.05;;
45802;SDS011;31504;51.716;9.184;2022-10-31T02:14:37;7.82;;;7.00;;
45802;SDS011;31504;51.716;9.184;2022-10-31T02:17:39;7.43;;;6.65;;
45802;SDS011;31504;51.716;9.184;2022-10-31T02:34:43;7.18;;;6.28;;
45802;SDS011;31504;51.716;9.184;2022-10-31T02:48:18;7.25;;;5.88;;
45802;SDS011;31504;51.716;9.184;2022-10-31T02:51:20;6.40;;;5.68;;
45802;SDS011;31504;51.716;9.184;2022-10-31T02:54:22;7.30;;;6.53;;
45802;SDS011;31504;51.716;9.184;2022-10-31T02:57:25;6.47;;;5.90;;
45802;SDS011;31504;51.716;9.184;2022-10-31T03:00:29;6.55;;;5.95;;
45802;SDS011;31504;51.716;9.184;2022-10-31T03:16:51;7.43;;;6.32;;
45802;SDS011;31504;51.716;9.184;2022-10-31T03:19:54;6.72;;;6.03;;
45802;SDS011;31504;51.716;9.184;2022-10-31T03:22:59;6.57;;;5.75;;
45802;SDS011;31504;51.716;9.184;2022-10-31T03:26:02;7.68;;;5.20;;
45802;SDS011;31504;51.716;9.184;2022-10-31T03:29:08;6.88;;;6.07;;
45802;SDS011;31504;51.716;9.184;2022-10-31T03:32:19;6.72;;;5.50;;
45802;SDS011;31504;51.716;9.184;2022-10-31T03:35:25;6.20;;;5.60;;
45802;SDS011;31504;51.716;9.184;2022-10-31T03:38:27;6.55;;;5.55;;
45802;SDS011;31504;51.716;9.184;2022-10-31T03:41:30;5.85;;;5.35;;
45802;SDS011;31504;51.716;9.184;2022-10-31T03:44:33;5.97;;;5.38;;
45802;SDS011;31504;51.716;9.184;2022-10-31T03:47:35;6.88;;;4.97;;
45802;SDS011;31504;51.716;9.184;2022-10-31T03:50:46;5.50;;;5.00;;
45802;SDS011;31504;51.716;9.184;2022-10-31T03:54:03;5.95;;;4.63;;
45802;SDS011;31504;51.716;9.184;2022-10-31T03:57:38;5.57;;;4.82;;
45802;SDS011;31504;51.716;9.184;2022-10-31T04:01:09;9.48;;;5.38;;
45802;SDS011;31504;51.716;9.184;2022-10-31T04:04:14;6.57;;;5.88;;
45802;SDS011;31504;51.716;9.184;2022-10-31T04:07:15;9.38;;;7.80;;
45802;SDS011;31504;51.716;9.184;2022-10-31T04:10:17;12.32;;;10.15;;
45802;SDS011;31504;51.716;9.184;2022-10-31T04:13:22;16.08;;;13.10;;
45802;SDS011;31504;51.716;9.184;2022-10-31T04:16:27;21.70;;;16.00;;
45802;SDS011;31504;51.716;9.184;2022-10-31T04:19:27;27.08;;;20.42;;
45802;SDS011;31504;51.716;9.184;2022-10-31T04:22:28;26.08;;;21.98;;
45802;SDS011;31504;51.716;9.184;2022-10-31T04:25:29;34.97;;;28.00;;
45802;SDS011;31504;51.716;9.184;2022-10-31T04:28:29;40.20;;;31.50;;
45802;SDS011;31504;51.716;9.184;2022-10-31T04:31:30;42.03;;;31.80;;
45802;SDS011;31504;51.716;9.184;2022-10-31T04:34:30;46.20;;;36.33;;
45802;SDS011;31504;51.716;9.184;2022-10-31T04:37:31;50.42;;;40.22;;
45802;SDS011;31504;51.716;9.184;2022-10-31T04:40:31;52.20;;;41.33;;
45802;SDS011;31504;51.716;9.184;2022-10-31T04:43:32;51.90;;;41.03;;
45802;SDS011;31504;51.716;9.184;2022-10-31T04:46:33;54.63;;;41.95;;
45802;SDS011;31504;51.716;9.184;2022-10-31T04:49:33;52.78;;;41.53;;
45802;SDS011;31504;51.716;9.184;2022-10-31T04:52:43;59.63;;;44.55;;
45802;SDS011;31504;51.716;9.184;2022-10-31T04:55:45;55.17;;;44.03;;
45802;SDS011;31504;51.716;9.184;2022-10-31T04:58:46;56.55;;;43.65;;
45802;SDS011;31504;51.716;9.184;2022-10-31T05:01:46;54.28;;;43.15;;
45802;SDS011;31504;51.716;9.184;2022-10-31T05:04:47;54.85;;;43.03;;
45802;SDS011;31504;51.716;9.184;2022-10-31T05:07:47;51.67;;;41.08;;
45802;SDS011;31504;51.716;9.184;2022-10-31T05:10:48;52.65;;;42.95;;
45802;SDS011;31504;51.716;9.184;2022-10-31T05:13:49;53.60;;;42.60;;
45802;SDS011;31504;51.716;9.184;2022-10-31T05:16:49;52.50;;;41.47;;
45802;SDS011;31504;51.716;9.184;2022-10-31T05:19:50;47.00;;;39.97;;
45802;SDS011;31504;51.716;9.184;2022-10-31T05:22:52;50.83;;;40.80;;
45802;SDS011;31504;51.716;9.184;2022-10-31T05:25:54;49.38;;;40.03;;
45802;SDS011;31504;51.716;9.184;2022-10-31T05:28:55;46.75;;;37.67;;
45802;SDS011;31504;51.716;9.184;2022-10-31T05:31:55;43.95;;;36.67;;
45802;SDS011;31504;51.716;9.184;2022-10-31T05:34:56;45.05;;;36.80;;
45802;SDS011;31504;51.716;9.184;2022-10-31T05:37:56;45.03;;;36.63;;
45802;SDS011;31504;51.716;9.184;2022-10-31T05:41:00;45.63;;;37.42;;
45802;SDS011;31504;51.716;9.184;2022-10-31T05:44:01;45.85;;;38.28;;
45802;SDS011;31504;51.716;9.184;2022-10-31T05:47:01;45.78;;;36.97;;
45802;SDS011;31504;51.716;9.184;2022-10-31T05:50:02;49.33;;;39.45;;
45802;SDS011;31504;51.716;9.184;2022-10-31T05:53:03;47.78;;;38.40;;
45802;SDS011;31504;51.716;9.184;2022-10-31T05:56:05;45.80;;;38.67;;
45802;SDS011;31504;51.716;9.184;2022-10-31T05:59:05;47.50;;;39.78;;
45802;SDS011;31504;51.716;9.184;2022-10-31T06:02:06;53.78;;;41.75;;
45802;SDS011;31504;51.716;9.184;2022-10-31T06:05:06;47.33;;;38.88;;
45802;SDS011;31504;51.716;9.184;2022-10-31T06:08:07;47.50;;;38.60;;
45802;SDS011;31504;51.716;9.184;2022-10-31T06:11:08;47.55;;;39.55;;
45802;SDS011;31504;51.716;9.184;2022-10-31T06:14:08;47.92;;;38.35;;
45802;SDS011;31504;51.716;9.184;2022-10-31T06:17:09;48.10;;;39.80;;
45802;SDS011;31504;51.716;9.184;2022-10-31T06:20:09;48.33;;;37.95;;
45802;SDS011;31504;51.716;9.184;2022-10-31T06:23:10;47.60;;;39.13;;
45802;SDS011;31504;51.716;9.184;2022-10-31T06:26:11;48.17;;;40.35;;
45802;SDS011;31504;51.716;9.184;2022-10-31T06:29:11;47.92;;;37.45;;
45802;SDS011;31504;51.716;9.184;2022-10-31T06:32:12;45.97;;;37.40;;
45802;SDS011;31504;51.716;9.184;2022-10-31T06:35:13;43.10;;;35.72;;
45802;SDS011;31504;51.716;9.184;2022-10-31T06:38:14;42.40;;;35.00;;
45802;SDS011;31504;51.716;9.184;2022-10-31T06:41:14;42.65;;;35.15;;
45802;SDS011;31504;51.716;9.184;2022-10-31T06:44:15;44.85;;;35.20;;
45802;SDS011;31504;51.716;9.184;2022-10-31T06:47:15;42.40;;;35.50;;
45802;SDS011;31504;51.716;9.184;2022-10-31T06:50:16;43.20;;;34.22;;
45802;SDS011;31504;51.716;9.184;2022-10-31T06:53:16;44.53;;;34.53;;
45802;SDS011;31504;51.716;9.184;2022-10-31T06:56:17;42.67;;;34.63;;
45802;SDS011;31504;51.716;9.184;2022-10-31T06:59:17;43.53;;;35.95;;
45802;SDS011;31504;51.716;9.184;2022-10-31T07:02:18;41.35;;;33.53;;
45802;SDS011;31504;51.716;9.184;2022-10-31T07:05:18;47.35;;;38.05;;
45802;SDS011;31504;51.716;9.184;2022-10-31T07:08:19;43.20;;;36.60;;
45802;SDS011;31504;51.716;9.184;2022-10-31T07:11:19;49.03;;;40.22;;
45802;SDS011;31504;51.716;9.184;2022-10-31T07:14:20;48.28;;;40.28;;
45802;SDS011;31504;51.716;9.184;2022-10-31T07:17:22;51.55;;;42.08;;
45802;SDS011;31504;51.716;9.184;2022-10-31T07:20:24;54.67;;;44.35;;
45802;SDS011;31504;51.716;9.184;2022-10-31T07:23:25;54.58;;;46.42;;
45802;SDS011;31504;51.716;9.184;2022-10-31T07:26:25;56.22;;;46.72;;
45802;SDS011;31504;51.716;9.184;2022-10-31T07:29:27;56.38;;;47.67;;
45802;SDS011;31504;51.716;9.184;2022-10-31T07:32:28;58.67;;;49.80;;
45802;SDS011;31504;51.716;9.184;2022-10-31T07:35:36;58.50;;;50.83;;
45802;SDS011;31504;51.716;9.184;2022-10-31T07:38:37;60.67;;;52.35;;
45802;SDS011;31504;51.716;9.184;2022-10-31T07:41:37;64.85;;;54.65;;
45802;SDS011;31504;51.716;9.184;2022-10-31T07:44:38;62.65;;;53.78;;
45802;SDS011;31504;51.716;9.184;2022-10-31T07:47:39;63.72;;;54.70;;
45802;SDS011;31504;51.716;9.184;2022-10-31T07:50:47;64.57;;;55.10;;
45802;SDS011;31504;51.716;9.184;2022-10-31T07:53:47;64.28;;;54.60;;
45802;SDS011;31504;51.716;9.184;2022-10-31T07:56:48;64.45;;;55.55;;
45802;SDS011;31504;51.716;9.184;2022-10-31T07:59:48;69.13;;;58.30;;
45802;SDS011;31504;51.716;9.184;2022-10-31T08:02:55;69.22;;;57.20;;
45802;SDS011;31504;51.716;9.184;2022-10-31T08:05:57;76.95;;;61.40;;
45802;SDS011;31504;51.716;9.184;2022-10-31T08:08:58;68.32;;;57.25;;
45802;SDS011;31504;51.716;9.184;2022-10-31T08:11:58;60.33;;;51.15;;
45802;SDS011;31504;51.716;9.184;2022-10-31T08:14:59;56.45;;;42.67;;
45802;SDS011;31504;51.716;9.184;2022-10-31T08:17:59;55.22;;;42.90;;
45802;SDS011;31504;51.716;9.184;2022-10-31T08:21:00;50.45;;;38.53;;
45802;SDS011;31504;51.716;9.184;2022-10-31T08:24:00;48.88;;;36.78;;
45802;SDS011;31504;51.716;9.184;2022-10-31T08:27:01;43.30;;;33.58;;
45802;SDS011;31504;51.716;9.184;2022-10-31T08:30:02;43.90;;;37.00;;
45802;SDS011;31504;51.716;9.184;2022-10-31T08:36:10;50.13;;;37.90;;
45802;SDS011;31504;51.716;9.184;2022-10-31T08:39:11;41.90;;;36.47;;
45802;SDS011;31504;51.716;9.184;2022-10-31T08:42:12;46.15;;;37.72;;
45802;SDS011;31504;51.716;9.184;2022-10-31T08:45:12;48.28;;;36.47;;
45802;SDS011;31504;51.716;9.184;2022-10-31T08:48:13;43.97;;;35.58;;
45802;SDS011;31504;51.716;9.184;2022-10-31T08:51:15;38.92;;;31.80;;
45802;SDS011;31504;51.716;9.184;2022-10-31T08:54:15;39.30;;;29.33;;
45802;SDS011;31504;51.716;9.184;2022-10-31T08:57:16;37.05;;;27.23;;
45802;SDS011;31504;51.716;9.184;2022-10-31T09:00:17;29.52;;;25.00;;
45802;SDS011;31504;51.716;9.184;2022-10-31T09:03:18;30.08;;;25.58;;
45802;SDS011;31504;51.716;9.184;2022-10-31T09:06:21;29.25;;;23.48;;
45802;SDS011;31504;51.716;9.184;2022-10-31T09:09:21;30.67;;;25.00;;
45802;SDS011;31504;51.716;9.184;2022-10-31T09:12:22;30.95;;;23.60;;
45802;SDS011;31504;51.716;9.184;2022-10-31T09:15:24;28.05;;;22.80;;
45802;SDS011;31504;51.716;9.184;2022-10-31T09:18:25;30.02;;;23.65;;
45802;SDS011;31504;51.716;9.184;2022-10-31T09:21:27;25.20;;;21.60;;
45802;SDS011;31504;51.716;9.184;2022-10-31T09:24:28;29.33;;;21.73;;
45802;SDS011;31504;51.716;9.184;2022-10-31T09:27:28;30.70;;;23.27;;
45802;SDS011;31504;51.716;9.184;2022-10-31T09:30:29;29.38;;;23.77;;
45802;SDS011;31504;51.716;9.184;2022-10-31T09:33:31;30.45;;;25.15;;
45802;SDS011;31504;51.716;9.184;2022-10-31T09:36:32;35.03;;;28.00;;
45802;SDS011;31504;51.716;9.184;2022-10-31T09:39:32;36.17;;;29.52;;
45802;SDS011;31504;51.716;9.184;2022-10-31T09:42:36;39.03;;;31.23;;
45802;SDS011;31504;51.716;9.184;2022-10-31T09:52:48;44.70;;;37.92;;
45802;SDS011;31504;51.716;9.184;2022-10-31T09:55:57;49.00;;;40.33;;
45802;SDS011;31504;51.716;9.184;2022-10-31T09:59:00;49.58;;;41.17;;
45802;SDS011;31504;51.716;9.184;2022-10-31T10:06:12;48.72;;;40.17;;
45802;SDS011;31504;51.716;9.184;2022-10-31T10:09:04;48.95;;;40.35;;
45802;SDS011;31504;51.716;9.184;2022-10-31T10:12:28;45.75;;;39.42;;
45802;SDS011;31504;51.716;9.184;2022-10-31T10:25:38;44.75;;;36.00;;
45802;SDS011;31504;51.716;9.184;2022-10-31T10:28:41;40.92;;;33.83;;
45802;SDS011;31504;51.716;9.184;2022-10-31T10:31:43;37.50;;;32.42;;
45802;SDS011;31504;51.716;9.184;2022-10-31T10:35:01;36.53;;;31.33;;
45802;SDS011;31504;51.716;9.184;2022-10-31T10:38:15;33.05;;;29.45;;
45802;SDS011;31504;51.716;9.184;2022-10-31T10:41:22;35.10;;;30.40;;
45802;SDS011;31504;51.716;9.184;2022-10-31T10:44:24;33.72;;;28.33;;
45802;SDS011;31504;51.716;9.184;2022-10-31T10:50:52;29.58;;;26.08;;
45802;SDS011;31504;51.716;9.184;2022-10-31T10:57:34;30.30;;;24.42;;
45802;SDS011;31504;51.716;9.184;2022-10-31T11:00:50;30.00;;;23.73;;
45802;SDS011;31504;51.716;9.184;2022-10-31T11:03:53;25.70;;;22.65;;
45802;SDS011;31504;51.716;9.184;2022-10-31T11:07:00;27.40;;;24.17;;
45802;SDS011;31504;51.716;9.184;2022-10-31T11:10:05;26.70;;;21.73;;
45802;SDS011;31504;51.716;9.184;2022-10-31T11:16:14;25.10;;;20.95;;
45802;SDS011;31504;51.716;9.184;2022-10-31T11:19:27;23.95;;;21.00;;
45802;SDS011;31504;51.716;9.184;2022-10-31T11:22:28;26.67;;;22.35;;
45802;SDS011;31504;51.716;9.184;2022-10-31T11:25:28;27.45;;;22.88;;
45802;SDS011;31504;51.716;9.184;2022-10-31T11:28:29;28.73;;;23.70;;
45802;SDS011;31504;51.716;9.184;2022-10-31T11:31:34;28.88;;;25.15;;
45802;SDS011;31504;51.716;9.184;2022-10-31T11:34:36;35.65;;;28.60;;
45802;SDS011;31504;51.716;9.184;2022-10-31T11:37:43;39.00;;;31.45;;
45802;SDS011;31504;51.716;9.184;2022-10-31T11:40:56;35.28;;;30.38;;
45802;SDS011;31504;51.716;9.184;2022-10-31T11:44:00;42.28;;;34.70;;
45802;SDS011;31504;51.716;9.184;2022-10-31T11:47:04;44.65;;;34.90;;
45802;SDS011;31504;51.716;9.184;2022-10-31T11:50:11;48.53;;;38.67;;
45802;SDS011;31504;51.716;9.184;2022-10-31T11:53:20;43.65;;;35.90;;
45802;SDS011;31504;51.716;9.184;2022-10-31T11:56:27;47.30;;;36.70;;
45802;SDS011;31504;51.716;9.184;2022-10-31T11:59:37;45.97;;;35.85;;
45802;SDS011;31504;51.716;9.184;2022-10-31T12:02:39;41.67;;;33.63;;
45802;SDS011;31504;51.716;9.184;2022-10-31T12:05:39;39.78;;;32.35;;
45802;SDS011;31504;51.716;9.184;2022-10-31T12:08:42;43.13;;;32.45;;
45802;SDS011;31504;51.716;9.184;2022-10-31T12:11:46;36.00;;;29.95;;
45802;SDS011;31504;51.716;9.184;2022-10-31T12:18:24;40.53;;;29.70;;
45802;SDS011;31504;51.716;9.184;2022-10-31T12:21:40;37.38;;;31.23;;
45802;SDS011;31504;51.716;9.184;2022-10-31T12:38:48;49.42;;;35.08;;
45802;SDS011;31504;51.716;9.184;2022-10-31T12:46:19;42.17;;;35.05;;
45802;SDS011;31504;51.716;9.184;2022-10-31T12:52:35;44.13;;;34.90;;
45802;SDS011;31504;51.716;9.184;2022-10-31T12:59:09;45.95;;;36.55;;
45802;SDS011;31504;51.716;9.184;2022-10-31T13:02:29;44.38;;;36.63;;
45802;SDS011;31504;51.716;9.184;2022-10-31T13:05:40;45.50;;;37.13;;
45802;SDS011;31504;51.716;9.184;2022-10-31T13:08:50;41.70;;;35.63;;
45802;SDS011;31504;51.716;9.184;2022-10-31T13:11:56;48.15;;;37.30;;
45802;SDS011;31504;51.716;9.184;2022-10-31T13:15:03;51.17;;;41.85;;
45802;SDS011;31504;51.716;9.184;2022-10-31T13:18:21;51.55;;;43.20;;
45802;SDS011;31504;51.716;9.184;2022-10-31T13:21:36;61.20;;;48.42;;
45802;SDS011;31504;51.716;9.184;2022-10-31T13:28:15;81.15;;;66.60;;
45802;SDS011;31504;51.716;9.184;2022-10-31T13:31:30;83.38;;;67.97;;
45802;SDS011;31504;51.716;9.184;2022-10-31T13:34:41;90.93;;;73.88;;
45802;SDS011;31504;51.716;9.184;2022-10-31T13:37:56;93.55;;;76.07;;
45802;SDS011;31504;51.716;9.184;2022-10-31T13:44:28;99.30;;;82.85;;
45802;SDS011;31504;51.716;9.184;2022-10-31T13:47:30;101.40;;;82.57;;
45802;SDS011;31504;51.716;9.184;2022-10-31T13:50:31;95.60;;;79.45;;
45802;SDS011;31504;51.716;9.184;2022-10-31T13:53:40;91.57;;;73.85;;
45802;SDS011;31504;51.716;9.184;2022-10-31T13:56:56;85.90;;;67.18;;
45802;SDS011;31504;51.716;9.184;2022-10-31T13:59:59;73.30;;;60.42;;
45802;SDS011;31504;51.716;9.184;2022-10-31T14:03:23;76.28;;;58.42;;
45802;SDS011;31504;51.716;9.184;2022-10-31T14:06:39;64.18;;;52.38;;
45802;SDS011;31504;51.716;9.184;2022-10-31T14:13:37;56.35;;;45.80;;
45802;SDS011;31504;51.716;9.184;2022-10-31T14:16:43;54.95;;;43.50;;
45802;SDS011;31504;51.716;9.184;2022-10-31T14:19:56;48.75;;;37.40;;
45802;SDS011;31504;51.716;9.184;2022-10-31T14:23:10;46.95;;;37.13;;
45802;SDS011;31504;51.716;9.184;2022-10-31T14:32:24;32.47;;;26.30;;
45802;SDS011;31504;51.716;9.184;2022-10-31T14:35:29;33.47;;;24.80;;
45802;SDS011;31504;51.716;9.184;2022-10-31T14:45:25;26.13;;;21.30;;
45802;SDS011;31504;51.716;9.184;2022-10-31T14:48:43;25.77;;;19.85;;
45802;SDS011;31504;51.716;9.184;2022-10-31T14:51:59;26.65;;;18.77;;
45802;SDS011;31504;51.716;9.184;2022-10-31T14:54:59;22.38;;;18.58;;
45802;SDS011;31504;51.716;9.184;2022-10-31T14:58:02;22.35;;;18.90;;
45802;SDS011;31504;51.716;9.184;2022-10-31T15:01:06;26.05;;;22.10;;
45802;SDS011;31504;51.716;9.184;2022-10-31T15:04:17;30.05;;;22.40;;
45802;SDS011;31504;51.716;9.184;2022-10-31T15:07:22;32.08;;;24.25;;
45802;SDS011;31504;51.716;9.184;2022-10-31T15:10:29;37.67;;;28.08;;
45802;SDS011;31504;51.716;9.184;2022-10-31T15:13:32;35.97;;;28.52;;
45802;SDS011;31504;51.716;9.184;2022-10-31T15:16:36;37.83;;;27.60;;
45802;SDS011;31504;51.716;9.184;2022-10-31T15:22:42;33.92;;;25.60;;
45802;SDS011;31504;51.716;9.184;2022-10-31T15:25:42;34.78;;;25.20;;
45802;SDS011;31504;51.716;9.184;2022-10-31T15:28:44;31.23;;;23.45;;
45802;SDS011;31504;51.716;9.184;2022-10-31T15:31:53;32.10;;;22.67;;
45802;SDS011;31504;51.716;9.184;2022-10-31T15:34:55;28.67;;;21.33;;
45802;SDS011;31504;51.716;9.184;2022-10-31T15:37:57;27.55;;;20.88;;
45802;SDS011;31504;51.716;9.184;2022-10-31T15:41:02;24.98;;;19.55;;
45802;SDS011;31504;51.716;9.184;2022-10-31T15:44:10;27.63;;;19.13;;
45802;SDS011;31504;51.716;9.184;2022-10-31T15:47:15;25.10;;;19.60;;
45802;SDS011;31504;51.716;9.184;2022-10-31T15:50:19;23.45;;;19.23;;
45802;SDS011;31504;51.716;9.184;2022-10-31T15:56:42;22.67;;;18.67;;
45802;SDS011;31504;51.716;9.184;2022-10-31T15:59:47;24.33;;;19.52;;
45802;SDS011;31504;51.716;9.184;2022-10-31T16:02:48;27.60;;;21.20;;
45802;SDS011;31504;51.716;9.184;2022-10-31T16:05:50;26.17;;;20.77;;
45802;SDS011;31504;51.716;9.184;2022-10-31T16:08:58;27.50;;;21.50;;
45802;SDS011;31504;51.716;9.184;2022-10-31T16:11:59;24.52;;;21.15;;
45802;SDS011;31504;51.716;9.184;2022-10-31T16:14:59;28.25;;;22.73;;
45802;SDS011;31504;51.716;9.184;2022-10-31T16:18:00;30.25;;;24.60;;
45802;SDS011;31504;51.716;9.184;2022-10-31T16:21:01;36.40;;;26.83;;
45802;SDS011;31504;51.716;9.184;2022-10-31T16:24:03;39.17;;;30.23;;
45802;SDS011;31504;51.716;9.184;2022-10-31T16:27:17;40.80;;;30.25;;
45802;SDS011;31504;51.716;9.184;2022-10-31T16:30:45;42.20;;;33.45;;
45802;SDS011;31504;51.716;9.184;2022-10-31T16:33:48;45.83;;;36.45;;
45802;SDS011;31504;51.716;9.184;2022-10-31T16:36:49;50.65;;;40.35;;
45802;SDS011;31504;51.716;9.184;2022-10-31T16:39:50;63.78;;;50.08;;
45802;SDS011;31504;51.716;9.184;2022-10-31T16:42:50;60.33;;;46.90;;
45802;SDS011;31504;51.716;9.184;2022-10-31T16:45:52;59.97;;;48.00;;
45802;SDS011;31504;51.716;9.184;2022-10-31T16:48:53;64.88;;;50.20;;
45802;SDS011;31504;51.716;9.184;2022-10-31T16:51:54;69.78;;;55.20;;
45802;SDS011;31504;51.716;9.184;2022-10-31T16:54:54;76.03;;;59.43;;
45802;SDS011;31504;51.716;9.184;2022-10-31T16:57:56;76.77;;;59.00;;
45802;SDS011;31504;51.716;9.184;2022-10-31T17:00:58;70.97;;;56.10;;
45802;SDS011;31504;51.716;9.184;2022-10-31T17:03:59;73.15;;;57.03;;
45802;SDS011;31504;51.716;9.184;2022-10-31T17:07:00;72.85;;;57.55;;
45802;SDS011;31504;51.716;9.184;2022-10-31T17:10:00;77.70;;;61.08;;
45802;SDS011;31504;51.716;9.184;2022-10-31T17:13:01;80.40;;;65.70;;
45802;SDS011;31504;51.716;9.184;2022-10-31T17:16:03;82.93;;;68.15;;
45802;SDS011;31504;51.716;9.184;2022-10-31T17:19:04;89.88;;;68.57;;
45802;SDS011;31504;51.716;9.184;2022-10-31T17:22:05;82.20;;;65.57;;
45802;SDS011;31504;51.716;9.184;2022-10-31T17:25:07;89.70;;;69.10;;
45802;SDS011;31504;51.716;9.184;2022-10-31T17:28:12;150.70;;;71.53;;
45802;SDS011;31504;51.716;9.184;2022-10-31T17:31:25;124.80;;;72.35;;
45802;SDS011;31504;51.716;9.184;2022-10-31T17:34:28;111.97;;;69.82;;
45802;SDS011;31504;51.716;9.184;2022-10-31T17:37:29;97.25;;;70.20;;
45802;SDS011;31504;51.716;9.184;2022-10-31T17:40:30;103.85;;;70.18;;
45802;SDS011;31504;51.716;9.184;2022-10-31T17:43:30;93.05;;;65.93;;
45802;SDS011;31504;51.716;9.184;2022-10-31T17:46:31;84.45;;;65.95;;
45802;SDS011;31504;51.716;9.184;2022-10-31T17:49:31;84.60;;;65.50;;
45802;SDS011;31504;51.716;9.184;2022-10-31T17:52:32;90.97;;;67.05;;
45802;SDS011;31504;51.716;9.184;2022-10-31T17:55:32;92.65;;;67.75;;
45802;SDS011;31504;51.716;9.184;2022-10-31T17:58:33;93.28;;;70.07;;
45802;SDS011;31504;51.716;9.184;2022-10-31T18:01:35;83.10;;;68.13;;
45802;SDS011;31504;51.716;9.184;2022-10-31T18:04:36;96.38;;;77.57;;
45802;SDS011;31504;51.716;9.184;2022-10-31T18:07:37;95.50;;;76.30;;
45802;SDS011;31504;51.716;9.184;2022-10-31T18:10:37;112.53;;;85.32;;
45802;SDS011;31504;51.716;9.184;2022-10-31T18:13:38;99.78;;;83.50;;
45802;SDS011;31504;51.716;9.184;2022-10-31T18:16:39;103.03;;;83.20;;
45802;SDS011;31504;51.716;9.184;2022-10-31T18:19:39;98.07;;;82.32;;
45802;SDS011;31504;51.716;9.184;2022-10-31T18:22:40;105.68;;;83.20;;
45802;SDS011;31504;51.716;9.184;2022-10-31T18:25:40;103.72;;;83.22;;
45802;SDS011;31504;51.716;9.184;2022-10-31T18:28:42;107.40;;;85.55;;
45802;SDS011;31504;51.716;9.184;2022-10-31T18:31:42;110.72;;;83.78;;
45802;SDS011;31504;51.716;9.184;2022-10-31T18:34:47;98.90;;;81.43;;
45802;SDS011;31504;51.716;9.184;2022-10-31T18:37:47;97.57;;;80.03;;
45802;SDS011;31504;51.716;9.184;2022-10-31T18:40:49;101.40;;;81.90;;
45802;SDS011;31504;51.716;9.184;2022-10-31T18:43:50;96.93;;;82.45;;
45802;SDS011;31504;51.716;9.184;2022-10-31T18:46:55;97.15;;;80.75;;
45802;SDS011;31504;51.716;9.184;2022-10-31T18:49:55;99.85;;;82.20;;
45802;SDS011;31504;51.716;9.184;2022-10-31T18:52:56;102.78;;;83.07;;
45802;SDS011;31504;51.716;9.184;2022-10-31T18:55:56;104.13;;;83.50;;
45802;SDS011;31504;51.716;9.184;2022-10-31T18:58:58;106.50;;;86.35;;
45802;SDS011;31504;51.716;9.184;2022-10-31T19:02:01;110.78;;;85.35;;
45802;SDS011;31504;51.716;9.184;2022-10-31T19:05:01;109.72;;;88.60;;
45802;SDS011;31504;51.716;9.184;2022-10-31T19:08:02;104.32;;;83.47;;
45802;SDS011;31504;51.716;9.184;2022-10-31T19:11:10;110.28;;;86.97;;
45802;SDS011;31504;51.716;9.184;2022-10-31T19:14:12;112.32;;;86.40;;
45802;SDS011;31504;51.716;9.184;2022-10-31T19:17:13;105.35;;;82.00;;
45802;SDS011;31504;51.716;9.184;2022-10-31T19:20:14;104.82;;;85.93;;
45802;SDS011;31504;51.716;9.184;2022-10-31T19:23:14;98.38;;;80.47;;
45802;SDS011;31504;51.716;9.184;2022-10-31T19:26:16;97.22;;;80.40;;
45802;SDS011;31504;51.716;9.184;2022-10-31T19:29:16;99.55;;;81.00;;
45802;SDS011;31504;51.716;9.184;2022-10-31T19:32:17;104.15;;;81.57;;
45802;SDS011;31504;51.716;9.184;2022-10-31T19:35:18;105.47;;;83.22;;
45802;SDS011;31504;51.716;9.184;2022-10-31T19:38:18;100.75;;;82.50;;
45802;SDS011;31504;51.716;9.184;2022-10-31T19:41:20;100.70;;;82.15;;
45802;SDS011;31504;51.716;9.184;2022-10-31T19:44:22;100.53;;;82.80;;
45802;SDS011;31504;51.716;9.184;2022-10-31T19:47:22;104.93;;;85.15;;
45802;SDS011;31504;51.716;9.184;2022-10-31T19:50:23;105.18;;;85.18;;
45802;SDS011;31504;51.716;9.184;2022-10-31T19:53:23;112.60;;;88.80;;
45802;SDS011;31504;51.716;9.184;2022-10-31T19:56:24;107.28;;;88.25;;
45802;SDS011;31504;51.716;9.184;2022-10-31T19:59:25;105.88;;;86.18;;
45802;SDS011;31504;51.716;9.184;2022-10-31T20:02:25;107.47;;;88.82;;
45802;SDS011;31504;51.716;9.184;2022-10-31T20:05:26;108.32;;;88.88;;